Pocatello, ID

1:43 PM MDT on September 23, 2014 (GMT -0600)
Pocatello Regional | Change Station
CLOSE
Current Station
Airport
Location: Pocatello,
Elevation: 4478 ft
Nearby Weather Stations

Elev 4478 ft 42.92 °N, 112.57 °W | Updated 50 minutes ago

Clear
Clear
77 °F
Feels Like 77 °F
N
4
Wind Variable Wind from Variable

Today
High -- | Low -- °F
--% Chance of Precip.
Yesterday
High -- | Low -- °F
Precip. -- in
7:18 AM 7:25 PM
Waning Crescent, 0% visible
Pressure 30.05 in
Visibility 10.0 miles
Clouds Few 4700 ft
Dew Point 51 °F
Humidity 40%
Rainfall 0.00 in
Snow Depth 0 in , 0 in , 0 in
UV 7 out of 12
Pollen 6.80 out of 12
PM2.5 Good
Flu Activity Not available.
METAR KPIH 231853Z VRB03KT 10SM FEW047 25/11 A3016 RMK AO2 SLP176 T02500106

More Conditions Fewer Conditions

Pressure 30.05 in
Visibility 10.0 miles
Clouds Few 4700 ft
Dew Point 51 °F
Humidity 40%
Rainfall 0.00 in
Snow Depth 0 in , 0 in , 0 in
UV 7 out of 12
Pollen 6.80 out of 12
PM2.5 Good
Flu Activity Not available.
METAR KPIH 231853Z VRB03KT 10SM FEW047 25/11 A3016 RMK AO2 SLP176 T02500106

More Conditions Fewer Conditions

10-Day Weather Forecast

Almanac

Astronomy

Sep. 23, 2014 Rise Set
Actual Time 7:18 AM MDT 7:25 PM MDT
Civil Twilight 6:49 AM MDT 7:53 PM MDT
Nautical Twilight 6:16 AM MDT 8:26 PM MDT
Astronomical Twilight 5:42 AM MDT 9:00 PM MDT
Moon 6:45 AM MDT 7:05 PM MDT
Length of Visible Light 13h 03m
Length of Day
12h 06m
Tomorrow will be 2m 54s shorter.
Waning Crescent, 0% of the Moon is Illuminated
Today
Waning Crescent
Sep 24
New
Oct 1
First Quarter
Oct 8
Full
Oct 15
Last Quarter

Today's Extremes

State Highs State Lows

Community

WunderPhotos

Upload Photos

1,755,788 photos uploaded!

WunderBlogs® & News

Nearby

Air Quality

  Air Quality AQ Index Pollutant
Yesterday Good
PM10
Current Good
PM2.5
Tuesday Good
PM2.5
Wednesday Good
PM2.5
Thursday Good
PM2.5

Snow Depth

Station Depth Elevation
Bogus Basin 0 in 6340 ft
Trinity Mountain 0 in 7770 ft
Moscow Mountain 0 in 4700 ft
Emigrant Summit 0 in 7390 ft
Deadwood Summit 1 in 6860 ft

Earthquake Activity

City Distance Mag. Time & Date
No recent earthquake activity has been reported nearby.
Minimum magnitude displayed is 2.5.

Coastal Water Temperatures

Place Temperature
No Stations Reporting

Nearby Weather Stations